Time;durP1;ratioP1;P1;durP2;ratioP2;P2;SDS_P1;SDS_P2;PMS_P1;PMS_P2;Temp;Humidity;BMP_temperature;BMP_pressure;BME280_temperature;BME280_humidity;BME280_pressure;Samples;Min_cycle;Max_cycle;Signal;HPM_P1;HPM_P2
2022/11/21 00:01:32;;;;;;;0.25;0.25;;;;;;;2.14;100.00;99401.25;6187631;23;20004;-86
2022/11/21 00:03:57;;;;;;;1.30;1.20;;;;;;;2.18;100.00;99396.53;6214002;23;20019;-82
2022/11/21 00:06:23;;;;;;;3.80;1.13;;;;;;;2.16;100.00;99393.41;6212191;23;20008;-84
2022/11/21 00:08:49;;;;;;;0.47;0.47;;;;;;;2.04;100.00;99382.88;6185443;23;20028;-84
2022/11/21 00:11:15;;;;;;;0.93;0.90;;;;;;;2.00;100.00;99381.34;6214411;23;20012;-85
2022/11/21 00:13:40;;;;;;;1.48;1.42;;;;;;;2.05;100.00;99378.19;6214587;23;20429;-84
2022/11/21 00:16:09;;;;;;;0.10;0.10;;;;;;;1.97;100.00;99382.13;6214012;23;20019;-84
2022/11/21 00:18:34;;;;;;;0.75;0.63;;;;;;;1.90;100.00;99371.22;6187671;23;20016;-84
2022/11/21 00:21:04;;;;;;;0.30;0.30;;;;;;;2.01;100.00;99371.97;6213580;23;20080;-85
2022/11/21 00:23:30;;;;;;;0.22;0.22;;;;;;;2.02;100.00;99379.00;6186854;23;20431;-84
2022/11/21 00:25:55;;;;;;;1.10;1.10;;;;;;;1.99;100.00;99369.59;6186404;23;20055;-84
2022/11/21 00:28:21;;;;;;;0.30;0.30;;;;;;;1.95;100.00;99368.06;6213625;23;20013;-84
2022/11/21 00:30:46;;;;;;;0.30;0.30;;;;;;;1.97;100.00;99361.03;6213904;23;20028;-84
2022/11/21 00:33:12;;;;;;;0.30;0.30;;;;;;;2.02;100.00;99368.06;6213956;23;20095;-84
2022/11/21 00:35:37;;;;;;;1.02;1.00;;;;;;;2.03;100.00;99344.97;6167197;23;20018;-84
2022/11/21 00:38:02;;;;;;;2.05;1.15;;;;;;;2.01;100.00;99339.13;6151862;23;20021;-84
2022/11/21 00:40:28;;;;;;;0.47;0.47;;;;;;;2.05;100.00;99356.31;6176951;23;20017;-83
2022/11/21 00:42:53;;;;;;;0.25;0.25;;;;;;;2.01;100.00;99350.88;6153247;23;20006;-84
2022/11/21 00:45:19;;;;;;;0.32;0.32;;;;;;;1.86;100.00;99354.81;6154054;23;20396;-84
2022/11/21 00:47:44;;;;;;;0.17;0.17;;;;;;;1.91;100.00;99368.06;6152945;23;20041;-84
2022/11/21 00:50:10;;;;;;;2.20;0.82;;;;;;;1.87;100.00;99361.81;6150996;23;20040;-84
2022/11/21 00:52:35;;;;;;;0.95;0.95;;;;;;;1.82;100.00;99349.34;6153470;23;20041;-78
2022/11/21 00:55:01;;;;;;;0.20;0.20;;;;;;;1.94;100.00;99361.06;6151727;23;20100;-78
2022/11/21 00:57:27;;;;;;;5.07;2.85;;;;;;;1.96;100.00;99361.41;6151758;23;20084;-78
2022/11/21 00:59:52;;;;;;;2.40;1.15;;;;;;;1.99;100.00;99360.63;6153397;23;20052;-78
2022/11/21 01:02:18;;;;;;;0.95;0.80;;;;;;;1.90;100.00;99360.28;6152842;23;20020;-78
2022/11/21 01:04:43;;;;;;;0.75;0.75;;;;;;;1.88;100.00;99347.78;6152137;23;20337;-79
2022/11/21 01:07:09;;;;;;;1.17;1.10;;;;;;;1.85;100.00;99345.84;6153044;23;20010;-79
2022/11/21 01:09:34;;;;;;;1.33;1.23;;;;;;;1.94;100.00;99350.09;6153576;23;20012;-78
2022/11/21 01:11:59;;;;;;;0.57;0.57;;;;;;;1.96;100.00;99353.22;6151122;23;20047;-79
2022/11/21 01:14:25;;;;;;;3.15;2.58;;;;;;;1.96;100.00;99366.88;6152943;23;20025;-78
2022/11/21 01:16:50;;;;;;;0.15;0.08;;;;;;;1.90;100.00;99366.53;6152339;23;20021;-84
2022/11/21 01:19:16;;;;;;;1.80;1.02;;;;;;;1.92;100.00;99366.91;6153214;23;20040;-85
2022/11/21 01:21:41;;;;;;;0.57;0.57;;;;;;;1.91;100.00;99364.53;6152497;23;20013;-84
2022/11/21 01:24:10;;;;;;;0.00;0.00;;;;;;;1.95;100.00;99362.59;6153175;23;20059;-85
2022/11/21 01:26:36;;;;;;;0.60;0.60;;;;;;;2.01;100.00;99372.75;6127349;23;20459;-84
2022/11/21 01:29:02;;;;;;;2.88;1.17;;;;;;;2.08;100.00;99366.47;6152787;23;20016;-84
2022/11/21 01:31:29;;;;;;;0.47;0.47;;;;;;;2.07;100.00;99373.09;6153920;23;20013;-79
2022/11/21 01:33:57;;;;;;;1.67;1.58;;;;;;;2.11;100.00;99376.59;6176161;23;20088;-79
2022/11/21 01:36:22;;;;;;;1.15;0.95;;;;;;;2.10;100.00;99366.84;6198511;23;20044;-79
2022/11/21 01:38:50;;;;;;;0.75;0.75;;;;;;;2.15;100.00;99382.84;6213413;23;20419;-79
2022/11/21 01:41:37;;;;;;;0.20;0.20;;;;;;;2.05;100.00;99375.47;6213217;23;20020;-79
2022/11/21 01:44:22;;;;;;;0.60;0.60;;;;;;;2.05;100.00;99373.50;6212182;23;20079;-78
2022/11/21 01:46:49;;;;;;;0.55;0.45;;;;;;;2.09;100.00;99376.22;6212381;23;20012;-79
2022/11/21 01:49:23;;;;;;;0.85;0.55;;;;;;;2.01;100.00;99369.22;6212791;23;20020;-78
2022/11/21 01:51:56;;;;;;;0.32;0.32;;;;;;;1.91;100.00;99378.22;6213019;23;20051;-79
2022/11/21 01:54:35;;;;;;;2.20;1.20;;;;;;;1.94;100.00;99372.78;6187168;23;20017;-79
2022/11/21 01:57:09;;;;;;;0.38;0.38;;;;;;;2.01;100.00;99377.44;6212723;23;20019;-79
2022/11/21 01:59:49;;;;;;;1.08;1.08;;;;;;;1.93;100.00;99360.25;6187250;23;20040;-79
2022/11/21 02:02:17;;;;;;;0.10;0.10;;;;;;;2.01;100.00;99366.50;6212348;23;20020;-79
2022/11/21 02:04:43;;;;;;;1.30;1.23;;;;;;;2.02;100.00;99373.53;6186204;23;20442;-78
2022/11/21 02:07:09;;;;;;;0.22;0.22;;;;;;;1.99;100.00;99364.13;6212753;23;20005;-78
2022/11/21 02:09:38;;;;;;;0.52;0.52;;;;;;;2.08;100.00;99366.47;6212995;23;20019;-84
2022/11/21 02:12:07;;;;;;;1.23;0.82;;;;;;;2.07;100.00;99368.41;6185820;23;20009;-79
2022/11/21 02:14:32;;;;;;;2.42;2.25;;;;;;;2.08;100.00;99374.66;6186686;23;20067;-79
2022/11/21 02:17:01;;;;;;;0.95;0.52;;;;;;;2.08;100.00;99361.00;6212519;23;20005;-79
2022/11/21 02:19:42;;;;;;;1.30;1.27;;;;;;;2.03;100.00;99361.38;6212626;23;20013;-79
2022/11/21 02:22:18;;;;;;;0.43;0.43;;;;;;;2.09;100.00;99357.09;6212645;23;20016;-79
2022/11/21 02:24:57;;;;;;;0.35;0.35;;;;;;;2.07;100.00;99345.75;6212274;23;20013;-78
2022/11/21 02:27:23;;;;;;;3.92;3.20;;;;;;;1.97;100.00;99341.88;6187345;23;20473;-78
2022/11/21 02:29:48;;;;;;;0.15;0.15;;;;;;;1.86;100.00;99338.41;6212686;23;20013;-79
2022/11/21 02:32:30;;;;;;;1.08;0.57;;;;;;;1.97;100.00;99341.09;6185648;23;20013;-79
2022/11/21 02:34:56;;;;;;;0.82;0.82;;;;;;;1.87;100.00;99339.94;6212630;23;20043;-79
2022/11/21 02:37:22;;;;;;;2.30;0.85;;;;;;;1.91;100.00;99345.41;6185930;23;20055;-79
2022/11/21 02:39:47;;;;;;;0.15;0.15;;;;;;;1.87;100.00;99338.00;6186492;23;20118;-79
2022/11/21 02:42:30;;;;;;;2.47;1.30;;;;;;;1.84;100.00;99330.59;6212748;23;20020;-79
2022/11/21 02:45:16;;;;;;;0.22;0.22;;;;;;;1.87;100.00;99339.94;6212107;23;20336;-79
2022/11/21 02:47:42;;;;;;;2.85;1.80;;;;;;;1.84;100.00;99336.06;6212858;23;20016;-84
2022/11/21 02:50:19;;;;;;;0.22;0.22;;;;;;;1.78;100.00;99336.88;6186466;23;20522;-79
2022/11/21 02:52:44;;;;;;;1.23;1.23;;;;;;;1.78;100.00;99332.16;6187860;23;20016;-79
2022/11/21 02:55:14;;;;;;;0.98;0.98;;;;;;;1.84;100.00;99325.13;6214687;23;20001;-79
2022/11/21 02:57:40;;;;;;;0.55;0.55;;;;;;;1.80;100.00;99329.81;6164009;23;20385;-78
2022/11/21 03:00:07;;;;;;;2.22;2.00;;;;;;;1.83;100.00;99323.56;6213887;23;20036;-79
2022/11/21 03:02:32;;;;;;;1.08;0.98;;;;;;;1.90;100.00;99316.53;6187661;23;20454;-79
2022/11/21 03:04:58;;;;;;;0.70;0.70;;;;;;;1.74;100.00;99306.78;6214761;23;20004;-79
2022/11/21 03:07:23;;;;;;;2.58;1.05;;;;;;;1.79;100.00;99311.84;6214244;23;20087;-79
2022/11/21 03:09:49;;;;;;;0.88;0.88;;;;;;;1.88;100.00;99309.47;6214298;23;20015;-79
2022/11/21 03:12:14;;;;;;;1.92;1.63;;;;;;;1.88;100.00;99308.69;6214344;23;20024;-79
2022/11/21 03:14:40;;;;;;;0.73;0.73;;;;;;;1.90;100.00;99317.31;6214948;23;20000;-78
2022/11/21 03:17:05;;;;;;;1.60;0.68;;;;;;;1.93;100.00;99323.94;6213658;23;20492;-78
2022/11/21 03:19:31;;;;;;;1.55;1.35;;;;;;;1.80;100.00;99313.41;6188021;23;20024;-79
2022/11/21 03:21:56;;;;;;;2.25;2.05;;;;;;;1.79;100.00;99320.06;6214417;23;20577;-78
2022/11/21 03:24:22;;;;;;;3.40;2.92;;;;;;;1.79;100.00;99322.00;6214304;23;20006;-78
2022/11/21 03:26:47;;;;;;;0.85;0.85;;;;;;;1.85;100.00;99315.75;6214041;23;20102;-78
2022/11/21 03:29:13;;;;;;;1.25;1.10;;;;;;;1.80;100.00;99334.50;6214158;23;20063;-78
2022/11/21 03:31:38;;;;;;;0.98;0.98;;;;;;;1.86;100.00;99330.97;6162068;23;20020;-79
2022/11/21 03:34:04;;;;;;;1.58;1.48;;;;;;;1.90;100.00;99328.25;6213651;23;20414;-79
2022/11/21 03:36:29;;;;;;;0.90;0.88;;;;;;;1.88;100.00;99333.31;6214272;23;20443;-78
2022/11/21 03:38:58;;;;;;;0.57;0.57;;;;;;;1.97;100.00;99338.38;6212837;23;20027;-79
2022/11/21 03:41:30;;;;;;;2.13;0.75;;;;;;;1.97;100.00;99332.91;6213770;23;20433;-78
2022/11/21 03:44:02;;;;;;;1.10;1.10;;;;;;;1.97;100.00;99339.16;6213961;23;20012;-79
2022/11/21 03:46:29;;;;;;;0.77;0.77;;;;;;;1.84;100.00;99336.06;6187001;23;20013;-78
2022/11/21 03:48:54;;;;;;;0.32;0.32;;;;;;;1.88;100.00;99334.09;6213478;23;20019;-78
2022/11/21 03:51:20;;;;;;;1.65;1.23;;;;;;;1.89;100.00;99310.25;6187479;23;20012;-78
2022/11/21 03:53:45;;;;;;;0.52;0.52;;;;;;;1.87;100.00;99324.31;6213754;23;20063;-79
2022/11/21 03:56:11;;;;;;;2.53;1.45;;;;;;;1.87;100.00;99307.91;6187503;23;20036;-79
2022/11/21 03:58:37;;;;;;;0.75;0.75;;;;;;;1.83;100.00;99312.63;6213912;23;20066;-78
2022/11/21 04:01:03;;;;;;;0.50;0.50;;;;;;;1.86;100.00;99309.09;6213754;23;20008;-78
2022/11/21 04:03:28;;;;;;;0.50;0.50;;;;;;;1.75;100.00;99305.63;6213410;23;20066;-79
2022/11/21 04:05:54;;;;;;;0.70;0.70;;;;;;;1.69;100.00;99296.28;6187773;23;20055;-78
2022/11/21 04:08:19;;;;;;;0.63;0.63;;;;;;;1.72;100.00;99295.47;6213715;23;20009;-79
2022/11/21 04:10:50;;;;;;;1.33;0.70;;;;;;;1.74;100.00;99289.63;6187784;23;20457;-78
2022/11/21 04:13:15;;;;;;;1.23;1.13;;;;;;;1.70;100.00;99294.31;6187503;23;20131;-79
2022/11/21 04:15:41;;;;;;;1.38;1.33;;;;;;;1.70;100.00;99278.66;6186767;23;20419;-78
2022/11/21 04:18:07;;;;;;;2.53;2.33;;;;;;;1.74;100.00;99293.09;6213644;23;20095;-78
2022/11/21 04:20:32;;;;;;;2.33;2.20;;;;;;;1.77;100.00;99280.63;6187716;23;20493;-79
2022/11/21 04:22:58;;;;;;;0.85;0.85;;;;;;;1.73;100.00;99272.44;6213624;23;20012;-81
2022/11/21 04:25:23;;;;;;;0.30;0.30;;;;;;;1.76;100.00;99274.38;6214092;23;20427;-78
2022/11/21 04:27:48;;;;;;;2.05;1.95;;;;;;;1.71;100.00;99276.72;6186975;23;20017;-79
2022/11/21 04:30:14;;;;;;;0.15;0.15;;;;;;;1.77;100.00;99272.41;6186890;23;20021;-78
2022/11/21 04:32:40;;;;;;;0.68;0.68;;;;;;;1.61;100.00;99283.81;6187222;23;20013;-79
2022/11/21 04:35:06;;;;;;;0.30;0.30;;;;;;;1.61;100.00;99286.53;6213498;23;20016;-78
2022/11/21 04:37:31;;;;;;;2.17;1.80;;;;;;;1.68;100.00;99283.78;6187353;23;20066;-79
2022/11/21 04:39:57;;;;;;;1.05;1.05;;;;;;;1.63;100.00;99281.44;6213568;23;20009;-78
2022/11/21 04:42:23;;;;;;;0.73;0.73;;;;;;;1.58;100.00;99284.56;6187022;23;20443;-81
2022/11/21 04:44:48;;;;;;;0.45;0.38;;;;;;;1.55;100.00;99277.16;6213423;23;20060;-78
2022/11/21 04:47:14;;;;;;;0.70;0.70;;;;;;;1.50;100.00;99260.41;6214396;23;20351;-78
2022/11/21 04:49:39;;;;;;;1.65;0.63;;;;;;;1.53;100.00;99260.41;6213553;23;20074;-78
2022/11/21 04:52:05;;;;;;;0.80;0.80;;;;;;;1.56;100.00;99247.88;6186212;23;20427;-79
2022/11/21 04:54:30;;;;;;;2.05;1.85;;;;;;;1.58;100.00;99246.28;6212863;23;20431;-79
2022/11/21 04:56:55;;;;;;;0.55;0.55;;;;;;;1.62;100.00;99232.66;6213134;23;20049;-79
2022/11/21 04:59:21;;;;;;;0.35;0.35;;;;;;;1.59;100.00;99220.53;6213046;23;20009;-79
2022/11/21 05:01:46;;;;;;;1.17;1.13;;;;;;;1.66;100.00;99231.44;6161240;23;20047;-78
2022/11/21 05:04:12;;;;;;;2.20;1.23;;;;;;;1.67;100.00;99227.53;6212954;23;20055;-79
2022/11/21 05:06:37;;;;;;;0.93;0.93;;;;;;;1.59;100.00;99234.19;6213721;23;20009;-78
2022/11/21 05:09:03;;;;;;;0.47;0.45;;;;;;;1.60;100.00;99238.50;6212711;23;20008;-78
2022/11/21 05:14:12;;;;;;;1.70;1.60;;;;;;;1.62;100.00;99243.59;6190153;23;20040;-78
2022/11/21 05:16:38;;;;;;;0.80;0.80;;;;;;;1.61;100.00;99266.63;6185393;23;20024;-78
2022/11/21 05:19:03;;;;;;;0.70;0.70;;;;;;;1.58;100.00;99259.97;6211051;23;20009;-79
2022/11/21 05:21:29;;;;;;;2.20;0.98;;;;;;;1.69;100.00;99260.72;6213495;23;20016;-78
2022/11/21 05:23:54;;;;;;;1.75;1.58;;;;;;;1.55;100.00;99249.84;6212870;23;20016;-79
2022/11/21 05:26:19;;;;;;;2.00;1.83;;;;;;;1.61;100.00;99231.88;6212712;23;20069;-78
2022/11/21 05:28:47;;;;;;;3.63;2.63;;;;;;;1.67;100.00;99235.72;6186049;23;20052;-79
2022/11/21 05:31:12;;;;;;;0.70;0.70;;;;;;;1.81;100.00;99238.41;6186765;23;20013;-79
2022/11/21 05:33:38;;;;;;;6.03;2.97;;;;;;;1.72;100.00;99250.94;6212774;23;20013;-79
2022/11/21 05:36:04;;;;;;;0.65;0.65;;;;;;;1.63;100.00;99256.84;6186029;23;20008;-78
2022/11/21 05:38:29;;;;;;;1.65;1.00;;;;;;;1.53;100.00;99251.41;6186109;23;20069;-79
2022/11/21 05:40:54;;;;;;;4.15;0.77;;;;;;;1.50;100.00;99247.50;6212772;23;20013;-79
2022/11/21 05:46:04;;;;;;;0.63;0.63;;;;;;;1.58;100.00;99246.28;6212291;23;20399;-78
2022/11/21 05:48:29;;;;;;;3.08;1.15;;;;;;;1.65;100.00;99229.91;6212223;23;20067;-78
2022/11/21 05:50:55;;;;;;;1.58;1.48;;;;;;;1.60;100.00;99221.31;6185465;23;20051;-78
2022/11/21 05:53:20;;;;;;;0.40;0.40;;;;;;;1.60;100.00;99227.56;6212592;23;20013;-78
2022/11/21 05:55:46;;;;;;;0.35;0.35;;;;;;;1.59;100.00;99228.72;6213186;23;20017;-78
2022/11/21 05:58:12;;;;;;;2.20;2.03;;;;;;;1.62;100.00;99208.03;6212595;23;20008;-78
2022/11/21 06:00:38;;;;;;;1.42;1.33;;;;;;;1.65;100.00;99218.97;6186832;23;20095;-78
2022/11/21 06:05:48;;;;;;;1.15;1.10;;;;;;;1.58;100.00;99267.41;6212624;23;20013;-78
2022/11/21 06:08:14;;;;;;;1.52;1.42;;;;;;;1.61;100.00;99255.69;6211174;23;20386;-78
2022/11/21 06:10:39;;;;;;;0.22;0.22;;;;;;;1.61;100.00;99259.19;6212173;23;20035;-78
2022/11/21 06:13:20;;;;;;;0.93;0.93;;;;;;;1.56;100.00;99259.59;6184209;23;20040;-79
2022/11/21 06:15:51;;;;;;;0.13;0.13;;;;;;;1.52;100.00;99264.28;6184433;23;20092;-78
2022/11/21 06:18:17;;;;;;;3.10;1.75;;;;;;;1.49;100.00;99259.63;6184301;23;20008;-78
2022/11/21 06:20:42;;;;;;;0.17;0.17;;;;;;;1.49;100.00;99267.81;6209334;23;20011;-79
2022/11/21 06:23:08;;;;;;;0.65;0.65;;;;;;;1.51;100.00;99273.66;6183211;23;20039;-78
2022/11/21 06:25:33;;;;;;;0.98;0.95;;;;;;;1.57;100.00;99283.03;6183962;23;20047;-78
2022/11/21 06:27:59;;;;;;;0.25;0.25;;;;;;;1.55;100.00;99290.03;6211495;23;20005;-80
2022/11/21 06:30:24;;;;;;;0.40;0.40;;;;;;;1.50;100.00;99296.69;6212499;23;20012;-79
2022/11/21 06:32:50;;;;;;;3.50;0.90;;;;;;;1.48;100.00;99299.06;6211811;23;20009;-80
2022/11/21 06:35:15;;;;;;;0.57;0.57;;;;;;;1.45;100.00;99305.31;6211404;23;20040;-80
2022/11/21 06:37:41;;;;;;;1.00;0.90;;;;;;;1.46;100.00;99298.66;6212013;23;20024;-80
2022/11/21 06:40:07;;;;;;;0.75;0.75;;;;;;;1.36;100.00;99304.94;6211805;23;20004;-80
2022/11/21 06:42:32;;;;;;;2.97;2.70;;;;;;;1.26;100.00;99308.44;6212499;23;20474;-79
2022/11/21 06:44:58;;;;;;;3.83;3.22;;;;;;;1.28;100.00;99303.38;6212025;23;20023;-79
2022/11/21 06:47:23;;;;;;;3.33;3.00;;;;;;;1.32;100.00;99315.09;6212778;23;20032;-79
2022/11/21 06:49:49;;;;;;;3.35;3.10;;;;;;;1.34;100.00;99307.25;6213242;23;20439;-80
2022/11/21 06:52:14;;;;;;;1.50;1.40;;;;;;;1.35;100.00;99309.63;6212924;23;20017;-80
2022/11/21 06:54:40;;;;;;;0.65;0.65;;;;;;;1.29;100.00;99302.22;6186453;23;20019;-79
2022/11/21 06:57:06;;;;;;;0.75;0.75;;;;;;;1.41;100.00;99315.47;6213786;23;20016;-79
2022/11/21 06:59:31;;;;;;;2.53;1.27;;;;;;;1.24;100.00;99299.88;6212808;23;20016;-79
2022/11/21 07:01:57;;;;;;;0.43;0.43;;;;;;;1.26;100.00;99316.63;6212858;23;20048;-80
2022/11/21 07:04:22;;;;;;;0.52;0.52;;;;;;;1.28;100.00;99312.38;6213018;23;20008;-80
2022/11/21 07:06:50;;;;;;;0.85;0.85;;;;;;;1.30;100.00;99311.94;6213315;23;20019;-80
2022/11/21 07:09:16;;;;;;;1.30;1.20;;;;;;;1.42;100.00;99320.53;6212856;23;20074;-80
2022/11/21 07:11:41;;;;;;;2.17;1.00;;;;;;;1.44;100.00;99322.09;6213369;23;20343;-80
2022/11/21 07:14:07;;;;;;;0.75;0.75;;;;;;;1.44;100.00;99316.63;6212870;23;20443;-79
2022/11/21 07:16:32;;;;;;;0.57;0.57;;;;;;;1.42;100.00;99317.78;6213040;23;20012;-79
2022/11/21 07:18:59;;;;;;;0.10;0.10;;;;;;;1.43;100.00;99324.03;6161543;23;20009;-80
2022/11/21 07:21:25;;;;;;;0.63;0.63;;;;;;;1.55;100.00;99323.63;6186976;23;20012;-80
2022/11/21 07:23:50;;;;;;;0.80;0.80;;;;;;;1.64;100.00;99324.00;6212987;23;20064;-80
2022/11/21 07:26:16;;;;;;;0.35;0.35;;;;;;;1.65;100.00;99322.06;6213438;23;20016;-80
2022/11/21 07:28:42;;;;;;;0.22;0.17;;;;;;;1.70;100.00;99325.16;6212816;23;20075;-80
2022/11/21 07:31:08;;;;;;;2.38;2.17;;;;;;;1.71;100.00;99315.78;6186364;23;20009;-80
2022/11/21 07:33:33;;;;;;;2.78;1.85;;;;;;;1.76;100.00;99311.88;6212891;23;20335;-80
2022/11/21 07:35:59;;;;;;;0.60;0.60;;;;;;;1.82;100.00;99313.78;6212329;23;20016;-79
2022/11/21 07:38:25;;;;;;;1.05;1.05;;;;;;;1.70;100.00;99303.28;6213987;23;20019;-80
2022/11/21 07:40:51;;;;;;;1.30;1.25;;;;;;;1.82;100.00;99313.03;6188244;23;20012;-80
2022/11/21 07:43:17;;;;;;;2.00;0.98;;;;;;;1.76;100.00;99309.91;6187714;23;20020;-80
2022/11/21 07:45:42;;;;;;;3.47;2.63;;;;;;;1.79;100.00;99311.06;6188151;23;20033;-79
2022/11/21 07:48:08;;;;;;;0.20;0.20;;;;;;;1.85;100.00;99310.28;6214478;23;20000;-80
2022/11/21 07:50:34;;;;;;;0.68;0.68;;;;;;;1.93;100.00;99304.78;6214807;23;20012;-80
2022/11/21 07:53:02;;;;;;;0.73;0.73;;;;;;;1.95;100.00;99303.19;6214312;23;20463;-84
2022/11/21 07:55:28;;;;;;;1.52;1.42;;;;;;;1.96;100.00;99306.72;6188202;23;20446;-79
2022/11/21 07:58:07;;;;;;;0.90;0.90;;;;;;;2.00;100.00;99299.28;6188044;23;20059;-80
2022/11/21 08:00:34;;;;;;;0.52;0.52;;;;;;;2.09;100.00;99292.22;6214284;23;20486;-80
2022/11/21 08:03:00;;;;;;;0.50;0.50;;;;;;;2.06;100.00;99282.06;6187462;23;20004;-79
2022/11/21 08:05:26;;;;;;;0.60;0.60;;;;;;;2.07;100.00;99297.28;6215038;23;20017;-79
2022/11/21 08:07:52;;;;;;;1.77;1.48;;;;;;;2.06;100.00;99293.00;6214760;23;20008;-79
2022/11/21 08:10:17;;;;;;;1.33;1.27;;;;;;;2.05;100.00;99285.19;6214173;23;20363;-80
2022/11/21 08:12:43;;;;;;;1.27;0.80;;;;;;;2.00;100.00;99291.84;6214841;23;20393;-79
2022/11/21 08:15:11;;;;;;;0.63;0.63;;;;;;;2.08;100.00;99289.84;6186983;23;20013;-79
2022/11/21 08:17:37;;;;;;;1.13;1.05;;;;;;;2.05;100.00;99290.66;6188056;23;20443;-79
2022/11/21 08:20:05;;;;;;;1.13;1.08;;;;;;;2.09;100.00;99281.28;6187375;23;20039;-79
2022/11/21 08:22:30;;;;;;;1.10;1.08;;;;;;;2.07;100.00;99285.56;6187487;23;20105;-80
2022/11/21 08:24:56;;;;;;;0.10;0.10;;;;;;;2.04;100.00;99287.16;6213978;23;20016;-79
2022/11/21 08:27:23;;;;;;;2.17;1.60;;;;;;;2.00;100.00;99282.88;6214312;23;20040;-79
2022/11/21 08:29:49;;;;;;;1.88;1.75;;;;;;;2.02;100.00;99291.47;6213858;23;20446;-79
2022/11/21 08:32:14;;;;;;;0.65;0.65;;;;;;;1.98;100.00;99291.47;6162325;23;20015;-80
2022/11/21 08:34:40;;;;;;;1.23;1.17;;;;;;;1.95;100.00;99299.69;6212897;23;20008;-79
2022/11/21 08:37:06;;;;;;;0.30;0.30;;;;;;;1.90;100.00;99300.13;6213226;23;20016;-79
2022/11/21 08:39:31;;;;;;;0.52;0.52;;;;;;;1.93;100.00;99299.31;6213925;23;20015;-79
2022/11/21 08:42:02;;;;;;;2.58;0.98;;;;;;;2.04;100.00;99294.56;6213794;23;20017;-80
2022/11/21 08:44:32;;;;;;;1.10;0.98;;;;;;;2.08;100.00;99292.59;6214079;23;20047;-80
2022/11/21 08:46:58;;;;;;;0.88;0.88;;;;;;;2.01;100.00;99306.31;6213686;23;20019;-79
2022/11/21 08:49:24;;;;;;;2.38;2.17;;;;;;;2.08;100.00;99298.84;6213739;23;20347;-79
2022/11/21 08:51:50;;;;;;;0.75;0.75;;;;;;;2.03;100.00;99303.94;6187411;23;20016;-84
2022/11/21 08:54:16;;;;;;;1.02;1.02;;;;;;;2.06;100.00;99311.38;6187077;23;20033;-84
2022/11/21 08:56:42;;;;;;;0.80;0.80;;;;;;;2.07;100.00;99310.19;6187072;23;20009;-84
2022/11/21 08:59:07;;;;;;;1.33;1.25;;;;;;;2.00;100.00;99315.69;6187197;23;20090;-84
2022/11/21 09:01:32;;;;;;;0.88;0.85;;;;;;;2.03;100.00;99318.41;6214208;23;20323;-85
2022/11/21 09:03:58;;;;;;;0.70;0.70;;;;;;;2.02;100.00;99316.09;6213619;23;20453;-84
2022/11/21 09:06:23;;;;;;;1.65;1.55;;;;;;;2.10;100.00;99309.41;6187458;23;20055;-84
2022/11/21 09:08:49;;;;;;;0.63;0.63;;;;;;;2.28;100.00;99310.09;6187383;23;20347;-84
2022/11/21 09:11:14;;;;;;;0.30;0.30;;;;;;;2.21;100.00;99307.41;6162233;23;20036;-84
2022/11/21 09:13:40;;;;;;;0.38;0.38;;;;;;;2.42;100.00;99315.50;6162633;23;20012;-84
2022/11/21 09:18:52;;;;;;;1.52;1.17;;;;;;;2.54;100.00;99306.81;6213572;23;20312;-84
2022/11/21 09:21:21;;;;;;;0.68;0.68;;;;;;;2.53;100.00;99301.75;6213927;23;20386;-84
2022/11/21 09:23:46;;;;;;;1.92;1.77;;;;;;;2.57;100.00;99311.50;6213923;23;20012;-84
2022/11/21 09:26:12;;;;;;;0.75;0.75;;;;;;;2.59;100.00;99314.59;6215364;23;20320;-84
2022/11/21 09:28:40;;;;;;;1.10;1.10;;;;;;;2.60;100.00;99288.78;6213842;23;20719;-79
2022/11/21 09:31:05;;;;;;;1.48;1.38;;;;;;;2.71;100.00;99300.44;6187337;23;20347;-79
2022/11/21 09:33:31;;;;;;;4.15;0.85;;;;;;;2.72;100.00;99291.03;6213584;23;20019;-79
2022/11/21 09:36:00;;;;;;;0.15;0.15;;;;;;;2.79;100.00;99296.47;6213642;23;20030;-79
2022/11/21 09:38:26;;;;;;;1.50;1.40;;;;;;;2.78;100.00;99300.41;6213142;23;20087;-79
2022/11/21 09:40:57;;;;;;;1.00;0.82;;;;;;;2.88;100.00;99287.00;6187016;23;20398;-79
2022/11/21 09:43:46;;;;;;;1.58;1.48;;;;;;;2.98;100.00;99302.59;6161632;23;20020;-79
2022/11/21 09:46:16;;;;;;;0.00;0.00;;;;;;;2.91;100.00;99283.47;6186518;23;20009;-80
2022/11/21 09:48:50;;;;;;;0.30;0.30;;;;;;;3.01;100.00;99293.56;6209766;23;20090;-79
2022/11/21 09:51:17;;;;;;;2.45;2.13;;;;;;;2.96;100.00;99294.00;6211038;23;20023;-79
2022/11/21 09:54:02;;;;;;;0.90;0.90;;;;;;;3.01;100.00;99301.78;6159158;23;20009;-79
2022/11/21 09:56:30;;;;;;;4.13;2.00;;;;;;;3.00;100.00;99300.22;6185160;23;20447;-79
2022/11/21 09:59:23;;;;;;;2.42;2.22;;;;;;;3.14;100.00;99306.38;6211055;23;20000;-79
2022/11/21 10:01:48;;;;;;;0.98;0.98;;;;;;;3.24;100.00;99294.53;6184017;23;20017;-79
2022/11/21 10:04:14;;;;;;;2.15;2.05;;;;;;;3.25;100.00;99289.81;6211318;23;20004;-78
2022/11/21 10:06:59;;;;;;;2.83;0.93;;;;;;;3.39;100.00;99281.47;6184311;23;20024;-84
2022/11/21 10:10:03;;;;;;;1.00;0.77;;;;;;;3.39;100.00;99281.47;6185134;23;20011;-78
2022/11/21 10:12:43;;;;;;;1.77;1.00;;;;;;;3.43;100.00;99278.69;6185019;23;20024;-79
2022/11/21 10:15:27;;;;;;;1.23;1.13;;;;;;;3.50;100.00;99281.38;6210517;23;20047;-79
2022/11/21 10:18:18;;;;;;;1.00;1.00;;;;;;;3.56;100.00;99288.72;6210155;23;20016;-79
2022/11/21 10:21:07;;;;;;;0.45;0.45;;;;;;;3.62;100.00;99278.88;6210291;23;20016;-79
2022/11/21 10:24:06;;;;;;;1.55;1.40;;;;;;;3.72;100.00;99285.44;6184646;23;20017;-79
2022/11/21 10:26:42;;;;;;;0.52;0.52;;;;;;;3.78;100.00;99283.00;6211209;23;20051;-79
2022/11/21 10:29:33;;;;;;;2.83;1.55;;;;;;;3.65;100.00;99291.78;6184508;23;20080;-79
2022/11/21 10:32:10;;;;;;;0.13;0.13;;;;;;;3.59;100.00;99290.69;6210671;23;20138;-78
2022/11/21 10:34:37;;;;;;;0.73;0.73;;;;;;;3.52;100.00;99282.50;6210752;23;20020;-80
2022/11/21 10:37:12;;;;;;;0.80;0.80;;;;;;;3.61;100.00;99263.59;6159007;23;20017;-79
2022/11/21 10:39:44;;;;;;;0.73;0.73;;;;;;;3.72;100.00;99269.75;6159700;23;20021;-79
2022/11/21 10:42:28;;;;;;;0.20;0.20;;;;;;;3.89;100.00;99272.69;6184061;23;20032;-79
2022/11/21 10:47:38;;;;;;;0.90;0.90;;;;;;;3.72;100.00;99266.25;6162719;23;20439;-80
2022/11/21 10:50:19;;;;;;;1.77;1.27;;;;;;;3.71;100.00;99270.94;6184217;23;20040;-80
2022/11/21 10:52:49;;;;;;;2.38;1.45;;;;;;;3.70;100.00;99252.94;6210270;23;20023;-80
2022/11/21 10:55:16;;;;;;;0.93;0.90;;;;;;;3.65;100.00;99253.38;6184653;23;20019;-81
2022/11/21 10:57:44;;;;;;;1.13;0.55;;;;;;;3.64;100.00;99251.81;6183688;23;20446;-80
2022/11/21 11:00:14;;;;;;;0.52;0.52;;;;;;;3.83;100.00;99255.13;6211505;23;20009;-80
2022/11/21 11:03:03;;;;;;;0.80;0.80;;;;;;;3.88;100.00;99235.50;6183459;23;20012;-79
2022/11/21 11:05:35;;;;;;;0.75;0.75;;;;;;;3.97;100.00;99231.03;6192995;23;20436;-79
2022/11/21 11:08:04;;;;;;;0.43;0.40;;;;;;;4.10;100.00;99236.75;6210163;23;20016;-80
2022/11/21 11:10:32;;;;;;;1.75;1.65;;;;;;;4.10;100.00;99221.06;6184800;23;20009;-80
2022/11/21 11:15:54;;;;;;;1.33;1.23;;;;;;;4.09;100.00;99215.97;6212314;23;20013;-80
2022/11/21 11:18:21;;;;;;;1.38;1.27;;;;;;;4.11;100.00;99211.66;6212490;23;20013;-79
2022/11/21 11:20:47;;;;;;;0.77;0.77;;;;;;;4.08;100.00;99207.00;6212016;23;20083;-79
2022/11/21 11:23:23;;;;;;;0.95;0.95;;;;;;;4.08;100.00;99208.97;6186510;23;20047;-81
2022/11/21 11:25:53;;;;;;;1.05;1.00;;;;;;;4.11;100.00;99208.91;6185604;23;20498;-80
2022/11/21 11:28:18;;;;;;;0.82;0.77;;;;;;;4.11;100.00;99202.63;6213212;23;20013;-80
2022/11/21 11:30:46;;;;;;;1.27;1.17;;;;;;;4.17;100.00;99215.47;6211817;23;20079;-79
2022/11/21 11:33:34;;;;;;;1.77;1.67;;;;;;;4.21;100.00;99212.66;6185811;23;20023;-80
2022/11/21 11:36:05;;;;;;;0.85;0.85;;;;;;;4.26;100.00;99203.97;6184866;23;20020;-79
2022/11/21 11:38:31;;;;;;;0.63;0.63;;;;;;;4.22;100.00;99198.53;6186117;23;20074;-80
2022/11/21 11:40:59;;;;;;;1.65;1.48;;;;;;;4.28;100.00;99204.34;6185416;23;20016;-79
2022/11/21 11:50:13;;;;;;;0.13;0.13;;;;;;;4.45;100.00;99192.31;6211944;23;20013;-85
2022/11/21 11:52:53;;;;;;;0.10;0.10;;;;;;;4.52;100.00;99183.97;6189762;23;20013;-85
2022/11/21 11:55:38;;;;;;;0.38;0.38;;;;;;;4.51;100.00;99187.91;6212777;23;20039;-85
2022/11/21 11:58:09;;;;;;;0.40;0.40;;;;;;;4.55;100.00;99183.13;6212070;23;20048;-85
2022/11/21 12:01:05;;;;;;;1.02;0.82;;;;;;;4.54;100.00;99189.03;6186689;23;20020;-86
2022/11/21 12:03:39;;;;;;;0.30;0.30;;;;;;;4.56;100.00;99190.19;6211143;23;20045;-80